createdAt,value
2022-09-27T00:01:49.721Z,11.30
2022-09-27T00:04:16.437Z,11.30
2022-09-27T00:06:43.103Z,11.30
2022-09-27T00:09:10.796Z,11.20
2022-09-27T00:11:40.158Z,11.20
2022-09-27T00:14:09.216Z,11.20
2022-09-27T00:16:38.208Z,11.20
2022-09-27T00:19:08.631Z,11.20
2022-09-27T00:21:35.711Z,11.20
2022-09-27T00:24:02.731Z,11.20
2022-09-27T00:26:29.909Z,11.20
2022-09-27T00:28:56.882Z,11.20
2022-09-27T00:31:26.405Z,11.20
2022-09-27T00:33:53.917Z,11.20
2022-09-27T00:36:22.497Z,11.20
2022-09-27T00:38:50.094Z,11.20
2022-09-27T00:41:23.585Z,11.20
2022-09-27T00:43:54.509Z,11.20
2022-09-27T00:46:26.790Z,11.20
2022-09-27T00:49:12.161Z,11.20
2022-09-27T00:51:41.036Z,11.20
2022-09-27T00:54:11.472Z,11.20
2022-09-27T00:56:39.105Z,11.20
2022-09-27T00:59:17.078Z,11.10
2022-09-27T01:01:44.612Z,11.10
2022-09-27T01:04:14.098Z,11.10
2022-09-27T01:06:40.858Z,11.10
2022-09-27T01:09:10.436Z,11.10
2022-09-27T01:11:49.430Z,11.10
2022-09-27T01:14:42.606Z,11.10
2022-09-27T01:17:30.923Z,11.10
2022-09-27T01:20:24.340Z,11.10
2022-09-27T01:23:10.132Z,11.10
2022-09-27T01:25:42.943Z,11.10
2022-09-27T01:28:39.029Z,11.10
2022-09-27T01:31:17.818Z,11.10
2022-09-27T01:34:06.011Z,11.10
2022-09-27T01:36:40.437Z,11.10
2022-09-27T01:39:45.993Z,11.10
2022-09-27T01:42:59.662Z,11.10
2022-09-27T01:45:45.865Z,11.10
2022-09-27T01:48:25.080Z,11.10
2022-09-27T01:51:07.213Z,11.10
2022-09-27T01:53:41.068Z,11.10
2022-09-27T01:56:52.188Z,11.20
2022-09-27T01:59:29.758Z,11.20
2022-09-27T02:02:21.872Z,11.20
2022-09-27T02:05:32.309Z,11.20
2022-09-27T02:08:15.675Z,11.20
2022-09-27T02:10:47.455Z,11.20
2022-09-27T02:13:31.324Z,11.20
2022-09-27T02:16:21.727Z,11.10
2022-09-27T02:19:26.198Z,11.10
2022-09-27T02:22:17.851Z,11.10
2022-09-27T02:25:07.867Z,11.10
2022-09-27T02:27:54.457Z,11.10
2022-09-27T02:30:21.727Z,11.10
2022-09-27T02:32:55.406Z,11.10
2022-09-27T02:35:29.663Z,11.00
2022-09-27T02:37:57.700Z,11.00
2022-09-27T02:40:29.719Z,11.00
2022-09-27T02:42:57.313Z,11.00
2022-09-27T02:45:27.596Z,11.00
2022-09-27T02:48:07.116Z,10.90
2022-09-27T02:50:57.186Z,10.90
2022-09-27T02:54:13.477Z,10.90
2022-09-27T02:57:08.710Z,10.80
2022-09-27T03:00:16.971Z,10.80
2022-09-27T03:03:13.345Z,10.70
2022-09-27T03:05:56.055Z,10.70
2022-09-27T03:08:23.084Z,10.60
2022-09-27T03:10:50.000Z,10.70
2022-09-27T03:13:16.955Z,10.70
2022-09-27T03:15:44.551Z,10.60
2022-09-27T03:18:46.306Z,10.60
2022-09-27T03:21:35.747Z,10.70
2022-09-27T03:24:03.036Z,10.70
2022-09-27T03:26:30.351Z,10.70
2022-09-27T03:28:57.439Z,10.70
2022-09-27T03:31:24.401Z,10.70
2022-09-27T03:34:11.106Z,10.60
2022-09-27T03:36:38.112Z,10.60
2022-09-27T03:39:04.857Z,10.60
2022-09-27T03:41:31.640Z,10.60
2022-09-27T03:43:59.779Z,10.60
2022-09-27T03:46:26.836Z,10.60
2022-09-27T03:48:53.712Z,10.60
2022-09-27T03:51:20.572Z,10.50
2022-09-27T03:53:47.850Z,10.60
2022-09-27T03:56:14.592Z,10.60
2022-09-27T03:58:41.520Z,10.60
2022-09-27T04:01:08.955Z,10.60
2022-09-27T04:03:38.158Z,10.60
2022-09-27T04:06:23.899Z,10.60
2022-09-27T04:08:50.764Z,10.60
2022-09-27T04:11:17.919Z,10.60
2022-09-27T04:13:49.208Z,10.60
2022-09-27T04:16:17.424Z,10.60
2022-09-27T04:19:10.993Z,10.60
2022-09-27T04:21:37.803Z,10.60
2022-09-27T04:24:06.663Z,10.60
2022-09-27T04:26:34.590Z,10.60
2022-09-27T04:29:03.675Z,10.50
2022-09-27T04:31:33.956Z,10.50
2022-09-27T04:34:11.808Z,10.50
2022-09-27T04:36:38.614Z,10.50
2022-09-27T04:39:12.555Z,10.50
2022-09-27T04:41:45.078Z,10.50
2022-09-27T04:44:12.316Z,10.50
2022-09-27T04:46:42.012Z,10.40
2022-09-27T04:49:10.655Z,10.40
2022-09-27T04:51:37.504Z,10.40
2022-09-27T04:54:04.889Z,10.40
2022-09-27T04:56:35.133Z,10.40
2022-09-27T04:59:08.314Z,10.40
2022-09-27T05:01:37.943Z,10.40
2022-09-27T05:04:07.752Z,10.40
2022-09-27T05:06:38.140Z,10.40
2022-09-27T05:09:08.758Z,10.40
2022-09-27T05:11:46.476Z,10.40
2022-09-27T05:14:16.336Z,10.40
2022-09-27T05:17:01.737Z,10.40
2022-09-27T05:19:34.785Z,10.40
2022-09-27T05:22:34.018Z,10.40
2022-09-27T05:25:00.931Z,10.30
2022-09-27T05:27:27.777Z,10.40
2022-09-27T05:29:55.152Z,10.30
2022-09-27T05:32:25.903Z,10.30
2022-09-27T05:35:09.259Z,10.30
2022-09-27T05:37:36.390Z,10.30
2022-09-27T05:40:16.905Z,10.30
2022-09-27T05:42:50.404Z,10.30
2022-09-27T05:45:17.700Z,10.30
2022-09-27T05:47:52.076Z,10.30
2022-09-27T05:50:18.912Z,10.30
2022-09-27T05:52:45.638Z,10.20
2022-09-27T05:55:14.072Z,10.20
2022-09-27T05:57:41.187Z,10.20
2022-09-27T06:00:10.437Z,10.20
2022-09-27T06:02:40.007Z,10.20
2022-09-27T06:05:15.804Z,10.10
2022-09-27T06:07:46.142Z,10.20
2022-09-27T06:10:22.056Z,10.10
2022-09-27T06:12:50.259Z,10.20
2022-09-27T06:15:45.420Z,10.20
2022-09-27T06:18:16.267Z,10.20
2022-09-27T06:20:45.100Z,10.20
2022-09-27T06:23:15.383Z,10.20
2022-09-27T06:25:43.321Z,10.20
2022-09-27T06:28:20.784Z,10.20
2022-09-27T06:30:50.803Z,10.20
2022-09-27T06:33:43.585Z,10.20
2022-09-27T06:36:10.338Z,10.20
2022-09-27T06:38:39.503Z,10.20
2022-09-27T06:41:16.869Z,10.20
2022-09-27T06:44:02.679Z,10.20
2022-09-27T06:47:07.540Z,10.20
2022-09-27T06:49:34.313Z,10.20
2022-09-27T06:52:01.739Z,10.20
2022-09-27T06:54:28.599Z,10.20
2022-09-27T06:56:57.915Z,10.20
2022-09-27T06:59:47.418Z,10.20
2022-09-27T07:02:32.736Z,10.30
2022-09-27T07:05:19.092Z,10.20
2022-09-27T07:08:02.241Z,10.20
2022-09-27T07:10:34.005Z,10.20
2022-09-27T07:13:09.036Z,10.10
2022-09-27T07:15:37.154Z,10.20
2022-09-27T07:18:09.160Z,10.20
2022-09-27T07:20:39.819Z,10.30
2022-09-27T07:23:08.040Z,10.30
2022-09-27T07:25:35.463Z,10.30
2022-09-27T07:28:08.147Z,10.30
2022-09-27T07:30:36.955Z,10.30
2022-09-27T07:33:06.144Z,10.30
2022-09-27T07:35:33.208Z,10.30
2022-09-27T07:38:00.009Z,10.30
2022-09-27T07:40:27.207Z,10.30
2022-09-27T07:42:58.465Z,10.30
2022-09-27T07:45:26.566Z,10.30
2022-09-27T07:48:15.026Z,10.40
2022-09-27T07:51:00.604Z,10.40
2022-09-27T07:53:43.329Z,10.40
2022-09-27T07:56:30.479Z,10.50
2022-09-27T07:58:57.780Z,10.50
2022-09-27T08:01:24.623Z,10.50
2022-09-27T08:03:51.457Z,10.60
2022-09-27T08:06:19.116Z,10.60
2022-09-27T08:08:47.429Z,10.60
2022-09-27T08:11:16.657Z,10.60
2022-09-27T08:13:46.231Z,10.70
2022-09-27T08:16:14.319Z,10.70
2022-09-27T08:19:13.412Z,10.80
2022-09-27T08:21:48.005Z,10.90
2022-09-27T08:24:18.167Z,10.90
2022-09-27T08:27:10.756Z,10.90
2022-09-27T08:30:05.121Z,10.90
2022-09-27T08:32:32.940Z,10.90
2022-09-27T08:35:01.535Z,10.90
2022-09-27T08:37:28.468Z,10.80
2022-09-27T08:39:55.196Z,10.80
2022-09-27T08:42:48.243Z,10.70
2022-09-27T08:45:32.929Z,10.70
2022-09-27T08:48:02.951Z,10.70
2022-09-27T08:50:39.735Z,10.60
2022-09-27T08:53:18.169Z,10.60
2022-09-27T08:55:53.735Z,10.60
2022-09-27T08:58:48.935Z,10.60
2022-09-27T09:01:27.822Z,10.70
2022-09-27T09:04:04.339Z,10.70
2022-09-27T09:06:47.775Z,10.70
2022-09-27T09:09:32.458Z,10.80
2022-09-27T09:12:36.977Z,10.80
2022-09-27T09:15:13.044Z,10.80
2022-09-27T09:18:05.002Z,10.80
2022-09-27T09:20:49.291Z,10.90
2022-09-27T09:23:44.742Z,10.90
2022-09-27T09:26:32.759Z,11.00
2022-09-27T09:29:14.284Z,11.00
2022-09-27T09:32:02.234Z,11.00
2022-09-27T09:34:33.147Z,11.10
2022-09-27T09:37:03.981Z,11.20
2022-09-27T09:39:51.512Z,11.20
2022-09-27T09:42:24.386Z,11.20
2022-09-27T09:45:31.617Z,11.30
2022-09-27T09:48:06.869Z,11.40
2022-09-27T09:50:45.104Z,11.40
2022-09-27T09:53:43.467Z,11.40
2022-09-27T09:56:29.687Z,11.40
2022-09-27T09:59:04.831Z,11.40
2022-09-27T10:01:43.959Z,11.30
2022-09-27T10:04:23.254Z,11.40
2022-09-27T10:06:52.917Z,11.50
2022-09-27T10:09:26.532Z,11.60
2022-09-27T10:12:16.892Z,11.70
2022-09-27T10:14:50.556Z,11.70
2022-09-27T10:17:22.280Z,11.80
2022-09-27T10:19:52.587Z,11.80
2022-09-27T10:22:29.187Z,11.90
2022-09-27T10:25:03.288Z,11.80
2022-09-27T10:27:45.877Z,11.80
2022-09-27T10:30:41.530Z,11.80
2022-09-27T10:33:18.994Z,11.80
2022-09-27T10:35:50.900Z,11.90
2022-09-27T10:38:36.709Z,11.90
2022-09-27T10:41:37.455Z,12.00
2022-09-27T10:44:20.054Z,12.00
2022-09-27T10:47:07.586Z,12.10
2022-09-27T10:49:53.695Z,12.10
2022-09-27T10:52:45.740Z,12.20
2022-09-27T10:55:24.221Z,12.20
2022-09-27T10:57:55.458Z,12.20
2022-09-27T11:00:27.672Z,12.20
2022-09-27T11:02:57.105Z,12.30
2022-09-27T11:05:27.965Z,12.30
2022-09-27T11:07:56.827Z,12.40
2022-09-27T11:10:37.998Z,12.40
2022-09-27T11:13:18.713Z,12.50
2022-09-27T11:15:50.865Z,12.60
2022-09-27T11:18:45.579Z,12.60
2022-09-27T11:21:21.054Z,12.70
2022-09-27T11:23:58.209Z,12.70
2022-09-27T11:26:33.814Z,12.70
2022-09-27T11:29:45.262Z,12.70
2022-09-27T11:33:33.487Z,12.70
2022-09-27T11:36:19.785Z,12.60
2022-09-27T11:39:28.533Z,12.60
2022-09-27T11:42:32.180Z,12.60
2022-09-27T11:45:27.118Z,12.60
2022-09-27T11:48:16.854Z,12.60
2022-09-27T11:51:29.104Z,12.50
2022-09-27T11:54:25.042Z,12.40
2022-09-27T11:57:18.912Z,12.40
2022-09-27T12:00:01.572Z,12.30
2022-09-27T12:03:02.949Z,12.20
2022-09-27T12:05:57.822Z,12.20
2022-09-27T12:09:02.554Z,12.10
2022-09-27T12:11:38.744Z,12.00
2022-09-27T12:14:30.468Z,12.00
2022-09-27T12:16:59.652Z,11.90
2022-09-27T12:19:33.143Z,11.80
2022-09-27T12:22:16.631Z,11.70
2022-09-27T12:24:46.738Z,11.70
2022-09-27T12:27:42.559Z,11.60
2022-09-27T12:30:14.466Z,11.60
2022-09-27T12:33:07.412Z,11.60
2022-09-27T12:35:42.787Z,11.60
2022-09-27T12:38:35.027Z,11.60
2022-09-27T12:41:04.733Z,11.60
2022-09-27T12:43:48.839Z,11.60
2022-09-27T12:47:04.632Z,11.60
2022-09-27T12:49:42.828Z,11.60
2022-09-27T12:52:15.603Z,11.60
2022-09-27T12:55:02.546Z,11.60
2022-09-27T12:57:38.122Z,11.70
2022-09-27T13:00:20.717Z,11.70
2022-09-27T13:03:16.514Z,11.70
2022-09-27T13:06:31.749Z,11.80
2022-09-27T13:09:15.850Z,11.80
2022-09-27T13:12:01.365Z,11.70
2022-09-27T13:14:34.392Z,11.70
2022-09-27T13:17:01.811Z,11.70
2022-09-27T13:19:35.469Z,11.70
2022-09-27T13:22:07.502Z,11.60
2022-09-27T13:24:57.000Z,11.70
2022-09-27T13:27:49.136Z,11.70
2022-09-27T13:30:28.298Z,11.70
2022-09-27T13:33:10.428Z,11.70
2022-09-27T13:36:16.240Z,11.80
2022-09-27T13:39:17.377Z,11.90
2022-09-27T13:42:35.312Z,12.00
2022-09-27T13:45:28.011Z,12.10
2022-09-27T13:47:58.407Z,12.20
2022-09-27T13:50:45.267Z,12.20
2022-09-27T13:53:23.445Z,12.10
2022-09-27T13:55:52.050Z,12.10
2022-09-27T13:58:52.696Z,12.10
2022-09-27T14:02:08.629Z,12.10
2022-09-27T14:04:44.221Z,12.10
2022-09-27T14:07:16.040Z,12.00
2022-09-27T14:09:47.708Z,12.00
2022-09-27T14:12:35.963Z,12.00
2022-09-27T14:15:08.173Z,11.90
2022-09-27T14:17:35.420Z,11.90
2022-09-27T14:20:03.552Z,11.90
2022-09-27T14:22:30.796Z,11.90
2022-09-27T14:25:17.770Z,12.00
2022-09-27T14:27:47.163Z,12.10
2022-09-27T14:30:44.125Z,12.10
2022-09-27T14:33:40.554Z,12.20
2022-09-27T14:36:44.644Z,12.30
2022-09-27T14:39:20.501Z,12.40
2022-09-27T14:41:50.263Z,12.50
2022-09-27T14:44:22.559Z,12.50
2022-09-27T14:47:17.515Z,12.50
2022-09-27T14:50:01.370Z,12.60
2022-09-27T14:52:32.958Z,12.60
2022-09-27T14:55:15.464Z,12.70
2022-09-27T14:57:49.064Z,12.70
2022-09-27T15:00:22.876Z,12.80
2022-09-27T15:02:54.934Z,13.00
2022-09-27T15:05:25.014Z,13.00
2022-09-27T15:07:52.290Z,13.10
2022-09-27T15:10:21.595Z,13.20
2022-09-27T15:12:54.968Z,13.30
2022-09-27T15:15:27.140Z,13.30
2022-09-27T15:17:53.952Z,13.40
2022-09-27T15:20:32.175Z,13.50
2022-09-27T15:23:02.964Z,13.40
2022-09-27T15:25:34.533Z,13.40
2022-09-27T15:28:05.340Z,13.20
2022-09-27T15:30:41.177Z,13.10
2022-09-27T15:33:23.739Z,13.00
2022-09-27T15:35:53.154Z,12.80
2022-09-27T15:38:31.205Z,12.60
2022-09-27T15:41:00.737Z,12.50
2022-09-27T15:43:39.462Z,12.40
2022-09-27T15:46:24.779Z,12.40
2022-09-27T15:49:19.504Z,12.30
2022-09-27T15:51:48.441Z,12.30
2022-09-27T15:54:19.178Z,12.30
2022-09-27T15:56:46.819Z,12.40
2022-09-27T15:59:20.236Z,12.40
2022-09-27T16:01:47.810Z,12.40
2022-09-27T16:04:14.723Z,12.40
2022-09-27T16:06:44.424Z,12.40
2022-09-27T16:09:17.908Z,12.30
2022-09-27T16:11:49.021Z,12.20
2022-09-27T16:14:19.858Z,12.20
2022-09-27T16:16:50.133Z,12.10
2022-09-27T16:19:16.961Z,12.10
2022-09-27T16:21:44.179Z,12.00
2022-09-27T16:24:11.531Z,11.90
2022-09-27T16:26:38.963Z,11.80
2022-09-27T16:29:10.046Z,11.70
2022-09-27T16:31:36.813Z,11.70
2022-09-27T16:34:03.604Z,11.60
2022-09-27T16:36:30.292Z,11.50
2022-09-27T16:38:57.073Z,11.50
2022-09-27T16:41:23.890Z,11.50
2022-09-27T16:43:50.606Z,11.40
2022-09-27T16:46:19.393Z,11.40
2022-09-27T16:48:47.656Z,11.40
2022-09-27T16:51:39.117Z,11.30
2022-09-27T16:54:07.053Z,11.30
2022-09-27T16:56:36.353Z,11.30
2022-09-27T16:59:04.450Z,11.20
2022-09-27T17:01:32.244Z,11.20
2022-09-27T17:03:59.717Z,11.10
2022-09-27T17:06:31.887Z,11.10
2022-09-27T17:09:02.818Z,11.00
2022-09-27T17:11:30.054Z,11.10
2022-09-27T17:13:56.797Z,11.00
2022-09-27T17:16:24.881Z,11.00
2022-09-27T17:18:51.741Z,11.00
2022-09-27T17:21:18.885Z,10.90
2022-09-27T17:23:45.718Z,10.90
2022-09-27T17:26:20.920Z,10.90
2022-09-27T17:28:49.794Z,10.80
2022-09-27T17:31:18.856Z,10.80
2022-09-27T17:33:55.538Z,10.80
2022-09-27T17:36:27.496Z,10.80
2022-09-27T17:38:54.283Z,10.70
2022-09-27T17:41:25.867Z,10.70
2022-09-27T17:43:57.852Z,10.70
2022-09-27T17:46:27.692Z,10.70
2022-09-27T17:49:13.689Z,10.70
2022-09-27T17:51:41.496Z,10.70
2022-09-27T17:54:10.187Z,10.60
2022-09-27T17:56:42.495Z,10.60
2022-09-27T17:59:10.652Z,10.60
2022-09-27T18:01:38.792Z,10.60
2022-09-27T18:04:09.766Z,10.60
2022-09-27T18:06:44.553Z,10.50
2022-09-27T18:09:13.037Z,10.50
2022-09-27T18:11:40.563Z,10.50
2022-09-27T18:14:07.735Z,10.50
2022-09-27T18:16:39.500Z,10.40
2022-09-27T18:19:08.287Z,10.40
2022-09-27T18:21:35.432Z,10.40
2022-09-27T18:24:06.369Z,10.40
2022-09-27T18:26:36.641Z,10.30
2022-09-27T18:29:21.532Z,10.30
2022-09-27T18:31:49.320Z,10.30
2022-09-27T18:34:17.747Z,10.20
2022-09-27T18:36:44.784Z,10.20
2022-09-27T18:39:15.039Z,10.20
2022-09-27T18:41:41.923Z,10.10
2022-09-27T18:44:12.738Z,10.10
2022-09-27T18:46:39.751Z,10.10
2022-09-27T18:49:14.454Z,10.00
2022-09-27T18:51:44.465Z,10.00
2022-09-27T18:54:17.259Z,10.00
2022-09-27T18:56:44.736Z,10.00
2022-09-27T18:59:11.812Z,9.90
2022-09-27T19:01:41.513Z,9.90
2022-09-27T19:04:09.572Z,9.90
2022-09-27T19:06:37.425Z,9.80
2022-09-27T19:09:05.622Z,9.80
2022-09-27T19:11:33.879Z,9.70
2022-09-27T19:14:01.579Z,9.70
2022-09-27T19:16:28.982Z,9.60
2022-09-27T19:18:55.868Z,9.60
2022-09-27T19:21:25.143Z,9.60
2022-09-27T19:23:52.373Z,9.60
2022-09-27T19:26:22.694Z,9.50
2022-09-27T19:28:50.557Z,9.50
2022-09-27T19:31:20.271Z,9.50
2022-09-27T19:33:47.823Z,9.40
2022-09-27T19:36:16.819Z,9.40
2022-09-27T19:38:43.603Z,9.30
2022-09-27T19:41:12.816Z,9.30
2022-09-27T19:43:40.497Z,9.30
2022-09-27T19:46:11.069Z,9.20
2022-09-27T19:48:38.361Z,9.20
2022-09-27T19:51:06.752Z,9.20
2022-09-27T19:53:34.599Z,9.20
2022-09-27T19:56:03.722Z,9.20
2022-09-27T19:58:31.967Z,9.20
2022-09-27T20:01:06.551Z,9.10
2022-09-27T20:03:34.902Z,9.10
2022-09-27T20:06:02.604Z,9.10
2022-09-27T20:08:30.048Z,9.10
2022-09-27T20:11:06.886Z,9.10
2022-09-27T20:13:35.296Z,9.10
2022-09-27T20:16:14.009Z,9.20
2022-09-27T20:18:47.752Z,9.20
2022-09-27T20:21:15.605Z,9.20
2022-09-27T20:23:42.700Z,9.20
2022-09-27T20:26:13.082Z,9.10
2022-09-27T20:28:44.803Z,9.10
2022-09-27T20:31:13.923Z,9.10
2022-09-27T20:33:40.977Z,9.10
2022-09-27T20:36:17.967Z,9.10
2022-09-27T20:38:50.656Z,9.00
2022-09-27T20:41:20.135Z,9.00
2022-09-27T20:43:47.695Z,9.00
2022-09-27T20:46:18.845Z,9.00
2022-09-27T20:48:46.953Z,9.00
2022-09-27T20:51:14.385Z,9.00
2022-09-27T20:53:43.001Z,9.00
2022-09-27T20:56:18.396Z,9.00
2022-09-27T20:58:45.337Z,9.00
2022-09-27T21:01:12.236Z,9.00
2022-09-27T21:03:39.013Z,9.10
2022-09-27T21:06:06.052Z,9.10
2022-09-27T21:08:34.092Z,9.10
2022-09-27T21:11:06.069Z,9.10
2022-09-27T21:13:32.814Z,9.20
2022-09-27T21:16:03.667Z,9.20
2022-09-27T21:18:30.784Z,9.20
2022-09-27T21:20:59.207Z,9.20
2022-09-27T21:23:26.044Z,9.20
2022-09-27T21:26:14.414Z,9.20
2022-09-27T21:28:45.334Z,9.30
2022-09-27T21:31:17.734Z,9.30
2022-09-27T21:33:53.597Z,9.30
2022-09-27T21:36:21.835Z,9.30
2022-09-27T21:38:48.797Z,9.40
2022-09-27T21:41:16.721Z,9.40
2022-09-27T21:43:45.757Z,9.40
2022-09-27T21:46:18.091Z,9.40
2022-09-27T21:48:48.380Z,9.40
2022-09-27T21:51:26.997Z,9.40
2022-09-27T21:54:02.055Z,9.40
2022-09-27T21:56:31.354Z,9.50
2022-09-27T21:58:58.506Z,9.50
2022-09-27T22:01:29.506Z,9.50
2022-09-27T22:03:57.556Z,9.50
2022-09-27T22:06:29.867Z,9.50
2022-09-27T22:08:58.081Z,9.50
2022-09-27T22:11:28.039Z,9.50
2022-09-27T22:13:55.076Z,9.50
2022-09-27T22:16:22.816Z,9.50
2022-09-27T22:18:52.001Z,9.50
2022-09-27T22:21:22.648Z,9.50
2022-09-27T22:23:56.988Z,9.50
2022-09-27T22:26:29.148Z,9.50
2022-09-27T22:28:56.575Z,9.50
2022-09-27T22:31:24.111Z,9.50
2022-09-27T22:33:54.171Z,9.60
2022-09-27T22:36:21.641Z,9.50
2022-09-27T22:38:49.395Z,9.50
2022-09-27T22:41:16.274Z,9.50
2022-09-27T22:43:43.644Z,9.60
2022-09-27T22:46:12.054Z,9.60
2022-09-27T22:48:39.403Z,9.50
2022-09-27T22:51:07.854Z,9.60
2022-09-27T22:53:35.491Z,9.60
2022-09-27T22:56:14.776Z,9.50
2022-09-27T22:58:44.833Z,9.50
2022-09-27T23:01:17.164Z,9.50
2022-09-27T23:03:45.540Z,9.50
2022-09-27T23:06:13.722Z,9.50
2022-09-27T23:08:40.687Z,9.50
2022-09-27T23:11:12.562Z,9.50
2022-09-27T23:13:41.528Z,9.50
2022-09-27T23:16:11.434Z,9.50
2022-09-27T23:18:38.391Z,9.50
2022-09-27T23:21:08.553Z,9.50
2022-09-27T23:23:41.227Z,9.50
2022-09-27T23:26:10.624Z,9.50
2022-09-27T23:28:38.310Z,9.50
2022-09-27T23:31:10.234Z,9.50
2022-09-27T23:33:38.645Z,9.50
2022-09-27T23:36:10.468Z,9.60
2022-09-27T23:38:38.799Z,9.50
2022-09-27T23:41:08.154Z,9.50
2022-09-27T23:43:35.915Z,9.60
2022-09-27T23:46:04.256Z,9.60
2022-09-27T23:48:31.070Z,9.60
2022-09-27T23:50:57.803Z,9.60
2022-09-27T23:53:24.831Z,9.60
2022-09-27T23:56:10.481Z,9.60
2022-09-27T23:58:39.606Z,9.60
